PWSweather.com
Personal Weather Stations
Station Observations
STPETERS
BroadstairsGB

BroadstairsGB

Lat: 51.37, Lon: 1.423

Elevation: 141

Station Type: WH1081

Latest ConditionsUpdated 8:30:03 AM GMT Thursday, Feb 11, 2016
Currently Today's Max Today's Min Today's Average
Temperature 34.5°F1.4°C 35.6°F2.0°C 32.4°F0.2°C 33.6°F0.9°C
Dew Point 30.2°F-1.0°C 30.7°F-0.7°C 27.7°F-2.4°C 28.8°F-1.8°C
Winds Calm Calm 4.2 mph WNW6.8 kmh WNW - 1.7 mph 2.7 kmh
Wind Gusts 0.7 mph1.1 kmh 6.0 mph9.7 kmh - -
Humidity 84% 84% 81% 82%
Pressure 29.69 in1005.4 mb 29.69 in1005.4 mb 29.65 in1004.1 mb -
Hour Temp Dew Point Humidity Winds Wind Gusts Pressure Precip Precip Rate Daily Precip Total
08:30 AM 34.5°F1.4°C 30.2°F-1.0°C 84% Calm Calm 0.7 mph1.1 kmh 29.69 in1005.4 mb 0.00 in0.0 mm 0.00 in0.0 mm 0.00 in0.0 mm
08:15 AM 33.8°F1.0°C 29.5°F-1.4°C 84% 0.3 mph SW0.5 kmh SW 0.7 mph1.1 kmh 29.69 in1005.4 mb 0.00 in0.0 mm 0.00 in0.0 mm 0.00 in0.0 mm
08:00 AM 33.3°F0.7°C 29.0°F-1.7°C 84% 0.1 mph WSW0.2 kmh WSW 0.7 mph1.1 kmh 29.69 in1005.4 mb 0.00 in0.0 mm 0.00 in0.0 mm 0.00 in0.0 mm
07:45 AM 32.9°F0.5°C 28.3°F-2.1°C 83% 0.7 mph W1.1 kmh W 1.6 mph2.6 kmh 29.69 in1005.4 mb 0.00 in0.0 mm 0.00 in0.0 mm 0.00 in0.0 mm
07:30 AM 32.9°F0.5°C 28.3°F-2.1°C 83% 0.6 mph WSW1.0 kmh WSW 1.6 mph2.6 kmh 29.69 in1005.4 mb 0.00 in0.0 mm 0.00 in0.0 mm 0.00 in0.0 mm
07:15 AM 32.7°F0.4°C 28.1°F-2.2°C 83% 2.0 mph WSW3.2 kmh WSW 2.2 mph3.5 kmh 29.69 in1005.4 mb 0.00 in0.0 mm 0.00 in0.0 mm 0.00 in0.0 mm
07:00 AM 32.9°F0.5°C 28.3°F-2.1°C 83% 1.1 mph WNW1.8 kmh WNW 1.6 mph2.6 kmh 29.68 in1005.1 mb 0.00 in0.0 mm 0.00 in0.0 mm 0.00 in0.0 mm
06:45 AM 32.9°F0.5°C 28.3°F-2.1°C 83% 1.4 mph W2.3 kmh W 2.2 mph3.5 kmh 29.68 in1005.1 mb 0.00 in0.0 mm 0.00 in0.0 mm 0.00 in0.0 mm
06:30 AM 32.9°F0.5°C 28.3°F-2.1°C 83% 1.4 mph WSW2.3 kmh WSW 2.2 mph3.5 kmh 29.68 in1005.1 mb 0.00 in0.0 mm 0.00 in0.0 mm 0.00 in0.0 mm
06:15 AM 33.1°F0.6°C 28.5°F-1.9°C 83% 1.1 mph WSW1.8 kmh WSW 1.6 mph2.6 kmh 29.68 in1005.1 mb 0.00 in0.0 mm 0.00 in0.0 mm 0.00 in0.0 mm
06:00 AM 33.1°F0.6°C 28.5°F-1.9°C 83% 1.6 mph WSW2.6 kmh WSW 2.2 mph3.5 kmh 29.68 in1005.1 mb 0.00 in0.0 mm 0.00 in0.0 mm 0.00 in0.0 mm
05:45 AM 33.1°F0.6°C 28.5°F-1.9°C 83% 1.5 mph W2.4 kmh W 2.2 mph3.5 kmh 29.68 in1005.1 mb 0.00 in0.0 mm 0.00 in0.0 mm 0.00 in0.0 mm
05:30 AM 32.9°F0.5°C 28.3°F-2.1°C 83% 1.1 mph W1.8 kmh W 2.2 mph3.5 kmh 29.68 in1005.1 mb 0.00 in0.0 mm 0.00 in0.0 mm 0.00 in0.0 mm
05:15 AM 32.7°F0.4°C 28.1°F-2.2°C 83% 0.5 mph WSW0.8 kmh WSW 2.2 mph3.5 kmh 29.68 in1005.1 mb 0.00 in0.0 mm 0.00 in0.0 mm 0.00 in0.0 mm
05:00 AM 32.4°F0.2°C 27.8°F-2.3°C 83% 1.9 mph WSW3.1 kmh WSW 2.2 mph3.5 kmh 29.67 in1004.7 mb 0.00 in0.0 mm 0.00 in0.0 mm 0.00 in0.0 mm
04:45 AM 32.4°F0.2°C 27.8°F-2.3°C 83% 1.3 mph WSW2.1 kmh WSW 1.6 mph2.6 kmh 29.68 in1005.1 mb 0.00 in0.0 mm 0.00 in0.0 mm 0.00 in0.0 mm
04:30 AM 32.5°F0.3°C 27.7°F-2.4°C 82% 1.5 mph W2.4 kmh W 2.2 mph3.5 kmh 29.67 in1004.7 mb 0.00 in0.0 mm 0.00 in0.0 mm 0.00 in0.0 mm
04:15 AM 32.9°F0.5°C 28.0°F-2.2°C 82% 1.4 mph W2.3 kmh W 2.2 mph3.5 kmh 29.68 in1005.1 mb 0.00 in0.0 mm 0.00 in0.0 mm 0.00 in0.0 mm
04:00 AM 33.1°F0.6°C 28.5°F-1.9°C 83% 1.8 mph W2.9 kmh W 2.2 mph3.5 kmh 29.68 in1005.1 mb 0.00 in0.0 mm 0.00 in0.0 mm 0.00 in0.0 mm
03:45 AM 33.1°F0.6°C 28.2°F-2.1°C 82% 1.8 mph W2.9 kmh W 3.1 mph5.0 kmh 29.68 in1005.1 mb 0.00 in0.0 mm 0.00 in0.0 mm 0.00 in0.0 mm
03:30 AM 33.3°F0.7°C 28.4°F-2.0°C 82% 2.1 mph W3.4 kmh W 3.8 mph6.1 kmh 29.68 in1005.1 mb 0.00 in0.0 mm 0.00 in0.0 mm 0.00 in0.0 mm
03:15 AM 33.4°F0.8°C 28.6°F-1.9°C 82% 2.4 mph WSW3.9 kmh WSW 3.1 mph5.0 kmh 29.68 in1005.1 mb 0.00 in0.0 mm 0.00 in0.0 mm 0.00 in0.0 mm
03:00 AM 33.1°F0.6°C 28.2°F-2.1°C 82% 2.3 mph W3.7 kmh W 3.1 mph5.0 kmh 29.69 in1005.4 mb 0.00 in0.0 mm 0.00 in0.0 mm 0.00 in0.0 mm
02:45 AM 33.3°F0.7°C 28.4°F-2.0°C 82% 1.4 mph W2.3 kmh W 2.2 mph3.5 kmh 29.68 in1005.1 mb 0.00 in0.0 mm 0.00 in0.0 mm 0.00 in0.0 mm
02:30 AM 33.6°F0.9°C 28.4°F-2.0°C 81% 1.1 mph W1.8 kmh W 2.2 mph3.5 kmh 29.68 in1005.1 mb 0.00 in0.0 mm 0.00 in0.0 mm 0.00 in0.0 mm
02:15 AM 34.2°F1.2°C 29.3°F-1.5°C 82% 2.0 mph WNW3.2 kmh WNW 3.8 mph6.1 kmh 29.68 in1005.1 mb 0.00 in0.0 mm 0.00 in0.0 mm 0.00 in0.0 mm
02:00 AM 34.7°F1.5°C 29.8°F-1.2°C 82% 2.3 mph NW3.7 kmh NW 3.1 mph5.0 kmh 29.68 in1005.1 mb 0.00 in0.0 mm 0.00 in0.0 mm 0.00 in0.0 mm
01:45 AM 34.5°F1.4°C 29.3°F-1.5°C 81% 2.7 mph NW4.3 kmh NW 3.8 mph6.1 kmh 29.67 in1004.7 mb 0.00 in0.0 mm 0.00 in0.0 mm 0.00 in0.0 mm
01:30 AM 34.7°F1.5°C 29.5°F-1.4°C 81% 2.4 mph W3.9 kmh W 3.8 mph6.1 kmh 29.67 in1004.7 mb 0.00 in0.0 mm 0.00 in0.0 mm 0.00 in0.0 mm
01:15 AM 35.1°F1.7°C 29.8°F-1.2°C 81% 2.4 mph W3.9 kmh W 3.8 mph6.1 kmh 29.66 in1004.4 mb 0.00 in0.0 mm 0.00 in0.0 mm 0.00 in0.0 mm
01:00 AM 34.9°F1.6°C 29.7°F-1.3°C 81% 2.5 mph WNW4.0 kmh WNW 3.8 mph6.1 kmh 29.67 in1004.7 mb 0.00 in0.0 mm 0.00 in0.0 mm 0.00 in0.0 mm
12:45 AM 35.1°F1.7°C 29.8°F-1.2°C 81% 1.8 mph W2.9 kmh W 3.1 mph5.0 kmh 29.67 in1004.7 mb 0.00 in0.0 mm 0.00 in0.0 mm 0.00 in0.0 mm
12:30 AM 35.2°F1.8°C 30.0°F-1.1°C 81% 2.6 mph WNW4.2 kmh WNW 3.8 mph6.1 kmh 29.66 in1004.4 mb 0.00 in0.0 mm 0.00 in0.0 mm 0.00 in0.0 mm
12:15 AM 35.6°F2.0°C 30.7°F-0.7°C 82% 3.7 mph WNW6.0 kmh WNW 4.5 mph7.2 kmh 29.66 in1004.4 mb 0.00 in0.0 mm 0.00 in0.0 mm 0.00 in0.0 mm
12:00 AM 35.4°F1.9°C 30.5°F-0.8°C 82% 4.2 mph WNW6.8 kmh WNW 6.0 mph9.7 kmh 29.65 in1004.1 mb 0.00 in0.0 mm 0.00 in0.0 mm 0.00 in0.0 mm